sensor_id;sensor_type;location;lat;lon;timestamp;temperature;humidity
7654;DHT22;3869;48.406;10.774;2022-07-19T00:01:24;18.60;86.10
7654;DHT22;3869;48.406;10.774;2022-07-19T00:03:52;18.50;86.30
7654;DHT22;3869;48.406;10.774;2022-07-19T00:06:20;18.50;86.60
7654;DHT22;3869;48.406;10.774;2022-07-19T00:08:48;18.50;86.70
7654;DHT22;3869;48.406;10.774;2022-07-19T00:11:16;18.40;87.10
7654;DHT22;3869;48.406;10.774;2022-07-19T00:13:45;18.40;86.90
7654;DHT22;3869;48.406;10.774;2022-07-19T00:16:13;18.40;87.00
7654;DHT22;3869;48.406;10.774;2022-07-19T00:18:42;18.40;86.90
7654;DHT22;3869;48.406;10.774;2022-07-19T00:21:10;18.30;87.20
7654;DHT22;3869;48.406;10.774;2022-07-19T00:23:38;18.30;86.80
7654;DHT22;3869;48.406;10.774;2022-07-19T00:26:06;18.20;86.90
7654;DHT22;3869;48.406;10.774;2022-07-19T00:28:34;18.20;87.10
7654;DHT22;3869;48.406;10.774;2022-07-19T00:31:04;18.20;87.30
7654;DHT22;3869;48.406;10.774;2022-07-19T00:33:32;18.10;87.20
7654;DHT22;3869;48.406;10.774;2022-07-19T00:36:00;18.10;87.50
7654;DHT22;3869;48.406;10.774;2022-07-19T00:38:28;18.10;87.50
7654;DHT22;3869;48.406;10.774;2022-07-19T00:40:56;18.10;87.50
7654;DHT22;3869;48.406;10.774;2022-07-19T00:43:24;18.00;87.30
7654;DHT22;3869;48.406;10.774;2022-07-19T00:45:52;18.00;87.50
7654;DHT22;3869;48.406;10.774;2022-07-19T00:48:21;17.90;87.60
7654;DHT22;3869;48.406;10.774;2022-07-19T00:50:50;17.90;87.70
7654;DHT22;3869;48.406;10.774;2022-07-19T00:53:18;17.90;87.80
7654;DHT22;3869;48.406;10.774;2022-07-19T00:55:46;17.90;88.20
7654;DHT22;3869;48.406;10.774;2022-07-19T00:58:16;17.90;88.30
7654;DHT22;3869;48.406;10.774;2022-07-19T01:00:44;17.90;88.30
7654;DHT22;3869;48.406;10.774;2022-07-19T01:03:12;17.80;88.30
7654;DHT22;3869;48.406;10.774;2022-07-19T01:05:42;17.80;88.30
7654;DHT22;3869;48.406;10.774;2022-07-19T01:08:13;17.80;88.40
7654;DHT22;3869;48.406;10.774;2022-07-19T01:10:41;17.70;88.10
7654;DHT22;3869;48.406;10.774;2022-07-19T01:13:12;17.60;88.00
7654;DHT22;3869;48.406;10.774;2022-07-19T01:15:41;17.60;88.50
7654;DHT22;3869;48.406;10.774;2022-07-19T01:18:10;17.50;88.60
7654;DHT22;3869;48.406;10.774;2022-07-19T01:20:38;17.50;88.70
7654;DHT22;3869;48.406;10.774;2022-07-19T01:23:07;17.50;88.80
7654;DHT22;3869;48.406;10.774;2022-07-19T01:25:36;17.50;89.00
7654;DHT22;3869;48.406;10.774;2022-07-19T01:28:05;17.50;89.30
7654;DHT22;3869;48.406;10.774;2022-07-19T01:30:34;17.50;89.30
7654;DHT22;3869;48.406;10.774;2022-07-19T01:33:03;17.40;89.30
7654;DHT22;3869;48.406;10.774;2022-07-19T01:35:31;17.30;89.30
7654;DHT22;3869;48.406;10.774;2022-07-19T01:37:59;17.30;89.50
7654;DHT22;3869;48.406;10.774;2022-07-19T01:40:28;17.20;89.50
7654;DHT22;3869;48.406;10.774;2022-07-19T01:42:56;17.20;89.70
7654;DHT22;3869;48.406;10.774;2022-07-19T01:45:24;17.20;89.80
7654;DHT22;3869;48.406;10.774;2022-07-19T01:47:52;17.10;89.80
7654;DHT22;3869;48.406;10.774;2022-07-19T01:50:21;17.10;90.00
7654;DHT22;3869;48.406;10.774;2022-07-19T01:52:49;17.10;90.10
7654;DHT22;3869;48.406;10.774;2022-07-19T01:55:18;17.10;90.20
7654;DHT22;3869;48.406;10.774;2022-07-19T01:57:48;17.10;90.20
7654;DHT22;3869;48.406;10.774;2022-07-19T02:00:17;17.10;90.30
7654;DHT22;3869;48.406;10.774;2022-07-19T02:02:45;17.10;90.30
7654;DHT22;3869;48.406;10.774;2022-07-19T02:05:13;17.10;90.30
7654;DHT22;3869;48.406;10.774;2022-07-19T02:07:45;17.00;90.30
7654;DHT22;3869;48.406;10.774;2022-07-19T02:10:15;16.90;90.30
7654;DHT22;3869;48.406;10.774;2022-07-19T02:12:43;16.90;90.40
7654;DHT22;3869;48.406;10.774;2022-07-19T02:15:12;16.90;90.40
7654;DHT22;3869;48.406;10.774;2022-07-19T02:17:40;16.90;90.50
7654;DHT22;3869;48.406;10.774;2022-07-19T02:20:09;16.90;90.50
7654;DHT22;3869;48.406;10.774;2022-07-19T02:22:39;16.90;90.50
7654;DHT22;3869;48.406;10.774;2022-07-19T02:25:08;16.80;90.50
7654;DHT22;3869;48.406;10.774;2022-07-19T02:27:36;16.80;90.50
7654;DHT22;3869;48.406;10.774;2022-07-19T02:30:04;16.70;90.90
7654;DHT22;3869;48.406;10.774;2022-07-19T02:32:34;16.60;90.60
7654;DHT22;3869;48.406;10.774;2022-07-19T02:35:02;16.60;90.60
7654;DHT22;3869;48.406;10.774;2022-07-19T02:37:30;16.60;90.70
7654;DHT22;3869;48.406;10.774;2022-07-19T02:39:58;16.50;90.70
7654;DHT22;3869;48.406;10.774;2022-07-19T02:42:26;16.50;90.90
7654;DHT22;3869;48.406;10.774;2022-07-19T02:44:54;16.50;91.00
7654;DHT22;3869;48.406;10.774;2022-07-19T02:47:22;16.50;91.10
7654;DHT22;3869;48.406;10.774;2022-07-19T02:49:52;16.50;91.20
7654;DHT22;3869;48.406;10.774;2022-07-19T02:52:20;16.50;91.20
7654;DHT22;3869;48.406;10.774;2022-07-19T02:54:48;16.50;91.30
7654;DHT22;3869;48.406;10.774;2022-07-19T02:57:16;16.50;91.20
7654;DHT22;3869;48.406;10.774;2022-07-19T02:59:44;16.50;91.20
7654;DHT22;3869;48.406;10.774;2022-07-19T03:02:12;16.50;91.20
7654;DHT22;3869;48.406;10.774;2022-07-19T03:04:40;16.40;91.20
7654;DHT22;3869;48.406;10.774;2022-07-19T03:07:09;16.40;91.20
7654;DHT22;3869;48.406;10.774;2022-07-19T03:09:37;16.40;91.30
7654;DHT22;3869;48.406;10.774;2022-07-19T03:12:05;16.40;91.40
7654;DHT22;3869;48.406;10.774;2022-07-19T03:14:33;16.40;91.40
7654;DHT22;3869;48.406;10.774;2022-07-19T03:17:01;16.30;91.30
7654;DHT22;3869;48.406;10.774;2022-07-19T03:19:29;16.30;91.40
7654;DHT22;3869;48.406;10.774;2022-07-19T03:21:57;16.30;91.50
7654;DHT22;3869;48.406;10.774;2022-07-19T03:24:27;16.30;91.50
7654;DHT22;3869;48.406;10.774;2022-07-19T03:26:55;16.20;91.40
7654;DHT22;3869;48.406;10.774;2022-07-19T03:29:23;16.20;91.60
7654;DHT22;3869;48.406;10.774;2022-07-19T03:31:56;16.20;91.70
7654;DHT22;3869;48.406;10.774;2022-07-19T03:34:24;16.10;91.70
7654;DHT22;3869;48.406;10.774;2022-07-19T03:36:52;16.10;91.80
7654;DHT22;3869;48.406;10.774;2022-07-19T03:39:20;16.20;91.90
7654;DHT22;3869;48.406;10.774;2022-07-19T03:41:50;16.20;91.90
7654;DHT22;3869;48.406;10.774;2022-07-19T03:44:26;16.20;91.90
7654;DHT22;3869;48.406;10.774;2022-07-19T03:46:54;16.20;92.00
7654;DHT22;3869;48.406;10.774;2022-07-19T03:49:22;16.10;92.10
7654;DHT22;3869;48.406;10.774;2022-07-19T03:51:50;16.00;92.00
7654;DHT22;3869;48.406;10.774;2022-07-19T03:54:18;16.10;92.20
7654;DHT22;3869;48.406;10.774;2022-07-19T03:56:46;16.10;92.20
7654;DHT22;3869;48.406;10.774;2022-07-19T03:59:15;16.10;92.20
7654;DHT22;3869;48.406;10.774;2022-07-19T04:01:43;16.00;92.20
7654;DHT22;3869;48.406;10.774;2022-07-19T04:04:12;16.00;92.30
7654;DHT22;3869;48.406;10.774;2022-07-19T04:06:40;16.10;92.30
7654;DHT22;3869;48.406;10.774;2022-07-19T04:09:08;16.10;92.40
7654;DHT22;3869;48.406;10.774;2022-07-19T04:11:36;16.10;92.40
7654;DHT22;3869;48.406;10.774;2022-07-19T04:14:04;16.10;92.40
7654;DHT22;3869;48.406;10.774;2022-07-19T04:16:33;16.00;92.30
7654;DHT22;3869;48.406;10.774;2022-07-19T04:19:01;16.00;92.30
7654;DHT22;3869;48.406;10.774;2022-07-19T04:21:29;15.90;92.40
7654;DHT22;3869;48.406;10.774;2022-07-19T04:23:58;15.90;92.60
7654;DHT22;3869;48.406;10.774;2022-07-19T04:26:28;15.90;92.60
7654;DHT22;3869;48.406;10.774;2022-07-19T04:28:56;16.00;92.80
7654;DHT22;3869;48.406;10.774;2022-07-19T04:31:24;16.00;92.80
7654;DHT22;3869;48.406;10.774;2022-07-19T04:33:53;16.00;92.80
7654;DHT22;3869;48.406;10.774;2022-07-19T04:36:21;16.00;92.90
7654;DHT22;3869;48.406;10.774;2022-07-19T04:38:49;16.00;93.10
7654;DHT22;3869;48.406;10.774;2022-07-19T04:41:17;16.00;93.10
7654;DHT22;3869;48.406;10.774;2022-07-19T04:43:45;16.00;93.10
7654;DHT22;3869;48.406;10.774;2022-07-19T04:46:13;16.00;93.20
7654;DHT22;3869;48.406;10.774;2022-07-19T04:48:41;16.10;93.40
7654;DHT22;3869;48.406;10.774;2022-07-19T04:51:11;16.10;93.50
7654;DHT22;3869;48.406;10.774;2022-07-19T04:53:39;16.20;93.70
7654;DHT22;3869;48.406;10.774;2022-07-19T04:56:07;16.20;93.80
7654;DHT22;3869;48.406;10.774;2022-07-19T04:58:35;16.30;93.90
7654;DHT22;3869;48.406;10.774;2022-07-19T05:01:03;16.30;94.00
7654;DHT22;3869;48.406;10.774;2022-07-19T05:03:31;16.40;94.10
7654;DHT22;3869;48.406;10.774;2022-07-19T05:05:59;16.40;94.20
7654;DHT22;3869;48.406;10.774;2022-07-19T05:08:28;16.50;94.40
7654;DHT22;3869;48.406;10.774;2022-07-19T05:10:56;16.60;94.50
7654;DHT22;3869;48.406;10.774;2022-07-19T05:13:24;16.70;94.60
7654;DHT22;3869;48.406;10.774;2022-07-19T05:15:52;16.80;94.80
7654;DHT22;3869;48.406;10.774;2022-07-19T05:18:20;17.00;95.00
7654;DHT22;3869;48.406;10.774;2022-07-19T05:20:48;17.10;95.10
7654;DHT22;3869;48.406;10.774;2022-07-19T05:23:16;17.20;95.00
7654;DHT22;3869;48.406;10.774;2022-07-19T05:25:46;17.30;95.00
7654;DHT22;3869;48.406;10.774;2022-07-19T05:28:14;17.30;95.10
7654;DHT22;3869;48.406;10.774;2022-07-19T05:30:42;17.40;95.10
7654;DHT22;3869;48.406;10.774;2022-07-19T05:33:10;17.50;95.20
7654;DHT22;3869;48.406;10.774;2022-07-19T05:35:38;17.60;95.30
7654;DHT22;3869;48.406;10.774;2022-07-19T05:38:06;17.70;95.40
7654;DHT22;3869;48.406;10.774;2022-07-19T05:40:35;17.80;95.30
7654;DHT22;3869;48.406;10.774;2022-07-19T05:43:05;17.90;95.30
7654;DHT22;3869;48.406;10.774;2022-07-19T05:45:33;18.00;95.20
7654;DHT22;3869;48.406;10.774;2022-07-19T05:48:01;18.10;95.00
7654;DHT22;3869;48.406;10.774;2022-07-19T05:50:29;18.30;95.00
7654;DHT22;3869;48.406;10.774;2022-07-19T05:52:57;18.40;94.40
7654;DHT22;3869;48.406;10.774;2022-07-19T05:55:25;18.50;94.30
7654;DHT22;3869;48.406;10.774;2022-07-19T05:57:53;18.60;94.30
7654;DHT22;3869;48.406;10.774;2022-07-19T06:00:22;18.80;94.20
7654;DHT22;3869;48.406;10.774;2022-07-19T06:02:50;18.90;94.10
7654;DHT22;3869;48.406;10.774;2022-07-19T06:05:18;18.90;93.90
7654;DHT22;3869;48.406;10.774;2022-07-19T06:07:46;19.00;93.70
7654;DHT22;3869;48.406;10.774;2022-07-19T06:10:14;19.10;93.70
7654;DHT22;3869;48.406;10.774;2022-07-19T06:12:42;19.10;93.50
7654;DHT22;3869;48.406;10.774;2022-07-19T06:15:11;19.20;93.40
7654;DHT22;3869;48.406;10.774;2022-07-19T06:17:40;19.30;93.10
7654;DHT22;3869;48.406;10.774;2022-07-19T06:20:09;19.40;93.00
7654;DHT22;3869;48.406;10.774;2022-07-19T06:22:37;19.50;92.90
7654;DHT22;3869;48.406;10.774;2022-07-19T06:25:06;19.60;92.70
7654;DHT22;3869;48.406;10.774;2022-07-19T06:27:34;19.70;92.30
7654;DHT22;3869;48.406;10.774;2022-07-19T06:30:03;19.80;92.20
7654;DHT22;3869;48.406;10.774;2022-07-19T06:32:31;19.90;92.20
7654;DHT22;3869;48.406;10.774;2022-07-19T06:35:00;20.10;91.70
7654;DHT22;3869;48.406;10.774;2022-07-19T06:37:28;20.10;91.60
7654;DHT22;3869;48.406;10.774;2022-07-19T06:39:56;20.30;91.50
7654;DHT22;3869;48.406;10.774;2022-07-19T06:42:24;20.40;90.50
7654;DHT22;3869;48.406;10.774;2022-07-19T06:44:52;20.50;90.70
7654;DHT22;3869;48.406;10.774;2022-07-19T06:47:20;20.60;90.70
7654;DHT22;3869;48.406;10.774;2022-07-19T06:49:48;20.70;90.60
7654;DHT22;3869;48.406;10.774;2022-07-19T06:52:17;20.90;90.50
7654;DHT22;3869;48.406;10.774;2022-07-19T06:54:45;21.00;90.50
7654;DHT22;3869;48.406;10.774;2022-07-19T06:57:13;21.10;90.30
7654;DHT22;3869;48.406;10.774;2022-07-19T06:59:41;21.10;88.90
7654;DHT22;3869;48.406;10.774;2022-07-19T07:02:09;21.30;88.80
7654;DHT22;3869;48.406;10.774;2022-07-19T07:04:38;21.40;87.90
7654;DHT22;3869;48.406;10.774;2022-07-19T07:07:12;21.60;88.00
7654;DHT22;3869;48.406;10.774;2022-07-19T07:09:42;21.70;86.30
7654;DHT22;3869;48.406;10.774;2022-07-19T07:12:10;21.90;86.00
7654;DHT22;3869;48.406;10.774;2022-07-19T07:14:40;22.00;86.70
7654;DHT22;3869;48.406;10.774;2022-07-19T07:17:08;22.10;86.10
7654;DHT22;3869;48.406;10.774;2022-07-19T07:19:36;22.20;84.90
7654;DHT22;3869;48.406;10.774;2022-07-19T07:22:04;22.40;85.00
7654;DHT22;3869;48.406;10.774;2022-07-19T07:24:32;22.50;85.50
7654;DHT22;3869;48.406;10.774;2022-07-19T07:27:01;22.60;85.50
7654;DHT22;3869;48.406;10.774;2022-07-19T07:29:29;22.60;85.20
7654;DHT22;3869;48.406;10.774;2022-07-19T07:31:58;22.80;85.10
7654;DHT22;3869;48.406;10.774;2022-07-19T07:34:26;22.80;83.60
7654;DHT22;3869;48.406;10.774;2022-07-19T07:37:02;23.00;83.00
7654;DHT22;3869;48.406;10.774;2022-07-19T07:39:30;23.10;81.30
7654;DHT22;3869;48.406;10.774;2022-07-19T07:41:58;23.20;80.60
7654;DHT22;3869;48.406;10.774;2022-07-19T07:44:39;23.20;81.70
7654;DHT22;3869;48.406;10.774;2022-07-19T07:47:07;23.30;80.50
7654;DHT22;3869;48.406;10.774;2022-07-19T07:49:36;23.40;79.60
7654;DHT22;3869;48.406;10.774;2022-07-19T07:52:04;23.50;81.00
7654;DHT22;3869;48.406;10.774;2022-07-19T07:54:32;23.60;79.80
7654;DHT22;3869;48.406;10.774;2022-07-19T07:57:02;23.70;79.10
7654;DHT22;3869;48.406;10.774;2022-07-19T07:59:30;23.80;78.80
7654;DHT22;3869;48.406;10.774;2022-07-19T08:01:59;23.90;79.10
7654;DHT22;3869;48.406;10.774;2022-07-19T08:04:28;23.90;79.10
7654;DHT22;3869;48.406;10.774;2022-07-19T08:06:56;24.00;78.20
7654;DHT22;3869;48.406;10.774;2022-07-19T08:09:24;24.10;77.60
7654;DHT22;3869;48.406;10.774;2022-07-19T08:11:52;24.20;77.80
7654;DHT22;3869;48.406;10.774;2022-07-19T08:14:20;24.30;76.90
7654;DHT22;3869;48.406;10.774;2022-07-19T08:16:49;24.50;77.30
7654;DHT22;3869;48.406;10.774;2022-07-19T08:19:18;24.60;76.50
7654;DHT22;3869;48.406;10.774;2022-07-19T08:21:46;24.70;75.60
7654;DHT22;3869;48.406;10.774;2022-07-19T08:24:14;24.80;75.40
7654;DHT22;3869;48.406;10.774;2022-07-19T08:26:43;24.90;76.30
7654;DHT22;3869;48.406;10.774;2022-07-19T08:29:11;24.90;75.20
7654;DHT22;3869;48.406;10.774;2022-07-19T08:31:39;25.00;74.90
7654;DHT22;3869;48.406;10.774;2022-07-19T08:34:07;25.10;73.90
7654;DHT22;3869;48.406;10.774;2022-07-19T08:36:37;25.20;72.10
7654;DHT22;3869;48.406;10.774;2022-07-19T08:39:05;25.30;72.10
7654;DHT22;3869;48.406;10.774;2022-07-19T08:41:33;25.40;70.20
7654;DHT22;3869;48.406;10.774;2022-07-19T08:44:03;25.50;70.00
7654;DHT22;3869;48.406;10.774;2022-07-19T08:46:32;25.60;70.60
7654;DHT22;3869;48.406;10.774;2022-07-19T08:49:01;25.70;70.80
7654;DHT22;3869;48.406;10.774;2022-07-19T08:51:29;25.70;69.20
7654;DHT22;3869;48.406;10.774;2022-07-19T08:53:59;25.80;68.90
7654;DHT22;3869;48.406;10.774;2022-07-19T08:56:28;25.90;69.50
7654;DHT22;3869;48.406;10.774;2022-07-19T08:59:13;26.00;69.30
7654;DHT22;3869;48.406;10.774;2022-07-19T09:01:41;26.10;68.10
7654;DHT22;3869;48.406;10.774;2022-07-19T09:04:15;26.20;67.40
7654;DHT22;3869;48.406;10.774;2022-07-19T09:06:46;26.30;67.40
7654;DHT22;3869;48.406;10.774;2022-07-19T09:09:18;26.40;66.90
7654;DHT22;3869;48.406;10.774;2022-07-19T09:11:48;26.50;66.60
7654;DHT22;3869;48.406;10.774;2022-07-19T09:14:19;26.40;64.80
7654;DHT22;3869;48.406;10.774;2022-07-19T09:16:53;26.50;65.00
7654;DHT22;3869;48.406;10.774;2022-07-19T09:19:21;26.60;66.10
7654;DHT22;3869;48.406;10.774;2022-07-19T09:21:54;26.70;66.30
7654;DHT22;3869;48.406;10.774;2022-07-19T09:24:24;26.70;65.90
7654;DHT22;3869;48.406;10.774;2022-07-19T09:27:03;26.80;64.90
7654;DHT22;3869;48.406;10.774;2022-07-19T09:29:33;26.90;65.20
7654;DHT22;3869;48.406;10.774;2022-07-19T09:32:04;26.90;63.90
7654;DHT22;3869;48.406;10.774;2022-07-19T09:34:33;27.10;63.60
7654;DHT22;3869;48.406;10.774;2022-07-19T09:37:20;27.20;63.90
7654;DHT22;3869;48.406;10.774;2022-07-19T09:39:51;27.30;62.40
7654;DHT22;3869;48.406;10.774;2022-07-19T09:42:21;27.30;62.50
7654;DHT22;3869;48.406;10.774;2022-07-19T09:44:57;27.40;61.30
7654;DHT22;3869;48.406;10.774;2022-07-19T09:47:33;27.40;62.00
7654;DHT22;3869;48.406;10.774;2022-07-19T09:50:04;27.50;63.00
7654;DHT22;3869;48.406;10.774;2022-07-19T09:52:33;27.50;62.60
7654;DHT22;3869;48.406;10.774;2022-07-19T09:55:08;27.60;61.90
7654;DHT22;3869;48.406;10.774;2022-07-19T09:57:39;27.70;60.60
7654;DHT22;3869;48.406;10.774;2022-07-19T10:00:09;27.70;61.60
7654;DHT22;3869;48.406;10.774;2022-07-19T10:02:40;27.80;60.40
7654;DHT22;3869;48.406;10.774;2022-07-19T10:05:10;27.90;60.40
7654;DHT22;3869;48.406;10.774;2022-07-19T10:07:39;27.90;61.20
7654;DHT22;3869;48.406;10.774;2022-07-19T10:10:11;28.00;60.00
7654;DHT22;3869;48.406;10.774;2022-07-19T10:12:40;28.10;59.60
7654;DHT22;3869;48.406;10.774;2022-07-19T10:15:11;28.10;60.40
7654;DHT22;3869;48.406;10.774;2022-07-19T10:20:26;28.20;58.40
7654;DHT22;3869;48.406;10.774;2022-07-19T10:22:57;28.30;57.80
7654;DHT22;3869;48.406;10.774;2022-07-19T10:25:37;28.40;58.30
7654;DHT22;3869;48.406;10.774;2022-07-19T10:28:26;28.50;57.60
7654;DHT22;3869;48.406;10.774;2022-07-19T10:31:25;28.60;57.90
7654;DHT22;3869;48.406;10.774;2022-07-19T10:34:02;28.70;57.00
7654;DHT22;3869;48.406;10.774;2022-07-19T10:36:34;28.70;57.50
7654;DHT22;3869;48.406;10.774;2022-07-19T10:39:26;28.70;56.40
7654;DHT22;3869;48.406;10.774;2022-07-19T10:42:15;28.70;56.30
7654;DHT22;3869;48.406;10.774;2022-07-19T10:45:14;28.80;56.20
7654;DHT22;3869;48.406;10.774;2022-07-19T10:48:09;28.90;57.30
7654;DHT22;3869;48.406;10.774;2022-07-19T10:50:46;28.90;57.50
7654;DHT22;3869;48.406;10.774;2022-07-19T10:56:38;29.00;56.50
7654;DHT22;3869;48.406;10.774;2022-07-19T10:59:32;29.10;55.90
7654;DHT22;3869;48.406;10.774;2022-07-19T11:02:00;29.20;55.60
7654;DHT22;3869;48.406;10.774;2022-07-19T11:04:49;29.20;55.70
7654;DHT22;3869;48.406;10.774;2022-07-19T11:07:22;29.30;55.30
7654;DHT22;3869;48.406;10.774;2022-07-19T11:09:53;29.40;55.20
7654;DHT22;3869;48.406;10.774;2022-07-19T11:12:31;29.50;56.50
7654;DHT22;3869;48.406;10.774;2022-07-19T11:15:04;29.60;54.90
7654;DHT22;3869;48.406;10.774;2022-07-19T11:17:54;29.70;55.10
7654;DHT22;3869;48.406;10.774;2022-07-19T11:20:23;29.70;54.70
7654;DHT22;3869;48.406;10.774;2022-07-19T11:22:52;29.80;53.60
7654;DHT22;3869;48.406;10.774;2022-07-19T11:25:26;29.80;53.40
7654;DHT22;3869;48.406;10.774;2022-07-19T11:27:55;29.90;53.70
7654;DHT22;3869;48.406;10.774;2022-07-19T11:30:26;29.90;53.00
7654;DHT22;3869;48.406;10.774;2022-07-19T11:32:57;30.00;53.40
7654;DHT22;3869;48.406;10.774;2022-07-19T11:35:25;30.00;51.80
7654;DHT22;3869;48.406;10.774;2022-07-19T11:37:55;30.00;52.20
7654;DHT22;3869;48.406;10.774;2022-07-19T11:40:24;30.10;52.40
7654;DHT22;3869;48.406;10.774;2022-07-19T11:42:52;30.10;51.10
7654;DHT22;3869;48.406;10.774;2022-07-19T11:45:44;30.20;51.40
7654;DHT22;3869;48.406;10.774;2022-07-19T11:48:23;30.20;51.10
7654;DHT22;3869;48.406;10.774;2022-07-19T11:51:01;30.30;50.90
7654;DHT22;3869;48.406;10.774;2022-07-19T11:53:30;30.40;52.30
7654;DHT22;3869;48.406;10.774;2022-07-19T11:55:58;30.40;52.10
7654;DHT22;3869;48.406;10.774;2022-07-19T11:58:26;30.50;49.80
7654;DHT22;3869;48.406;10.774;2022-07-19T12:01:02;30.50;49.80
7654;DHT22;3869;48.406;10.774;2022-07-19T12:03:30;30.50;48.90
7654;DHT22;3869;48.406;10.774;2022-07-19T12:06:01;30.50;49.30
7654;DHT22;3869;48.406;10.774;2022-07-19T12:08:38;30.70;49.30
7654;DHT22;3869;48.406;10.774;2022-07-19T12:11:19;30.70;49.80
7654;DHT22;3869;48.406;10.774;2022-07-19T12:13:48;30.80;49.20
7654;DHT22;3869;48.406;10.774;2022-07-19T12:16:19;30.90;48.90
7654;DHT22;3869;48.406;10.774;2022-07-19T12:18:49;31.00;48.70
7654;DHT22;3869;48.406;10.774;2022-07-19T12:21:37;31.00;48.80
7654;DHT22;3869;48.406;10.774;2022-07-19T12:24:09;31.10;49.10
7654;DHT22;3869;48.406;10.774;2022-07-19T12:26:38;31.10;49.30
7654;DHT22;3869;48.406;10.774;2022-07-19T12:29:22;31.10;48.30
7654;DHT22;3869;48.406;10.774;2022-07-19T12:31:53;31.20;48.60
7654;DHT22;3869;48.406;10.774;2022-07-19T12:34:21;31.30;47.30
7654;DHT22;3869;48.406;10.774;2022-07-19T12:36:49;31.30;47.30
7654;DHT22;3869;48.406;10.774;2022-07-19T12:39:23;31.30;47.10
7654;DHT22;3869;48.406;10.774;2022-07-19T12:42:04;31.30;46.70
7654;DHT22;3869;48.406;10.774;2022-07-19T12:44:33;31.40;47.30
7654;DHT22;3869;48.406;10.774;2022-07-19T12:47:03;31.40;47.30
7654;DHT22;3869;48.406;10.774;2022-07-19T12:49:51;31.50;47.90
7654;DHT22;3869;48.406;10.774;2022-07-19T12:52:32;31.50;48.00
7654;DHT22;3869;48.406;10.774;2022-07-19T12:55:00;31.60;46.30
7654;DHT22;3869;48.406;10.774;2022-07-19T12:57:28;31.60;46.30
7654;DHT22;3869;48.406;10.774;2022-07-19T12:59:56;31.60;47.70
7654;DHT22;3869;48.406;10.774;2022-07-19T13:02:25;31.60;46.50
7654;DHT22;3869;48.406;10.774;2022-07-19T13:04:53;31.70;46.40
7654;DHT22;3869;48.406;10.774;2022-07-19T13:07:21;31.70;46.50
7654;DHT22;3869;48.406;10.774;2022-07-19T13:09:49;31.70;45.40
7654;DHT22;3869;48.406;10.774;2022-07-19T13:12:18;31.70;44.80
7654;DHT22;3869;48.406;10.774;2022-07-19T13:14:46;31.60;44.50
7654;DHT22;3869;48.406;10.774;2022-07-19T13:17:14;31.60;45.10
7654;DHT22;3869;48.406;10.774;2022-07-19T13:19:43;31.60;45.50
7654;DHT22;3869;48.406;10.774;2022-07-19T13:22:11;31.70;44.80
7654;DHT22;3869;48.406;10.774;2022-07-19T13:24:40;31.70;45.30
7654;DHT22;3869;48.406;10.774;2022-07-19T13:27:28;31.70;45.50
7654;DHT22;3869;48.406;10.774;2022-07-19T13:29:56;31.80;45.40
7654;DHT22;3869;48.406;10.774;2022-07-19T13:32:24;31.80;44.80
7654;DHT22;3869;48.406;10.774;2022-07-19T13:34:54;31.90;44.90
7654;DHT22;3869;48.406;10.774;2022-07-19T13:37:22;31.90;44.20
7654;DHT22;3869;48.406;10.774;2022-07-19T13:39:50;31.90;44.40
7654;DHT22;3869;48.406;10.774;2022-07-19T13:42:18;31.90;44.50
7654;DHT22;3869;48.406;10.774;2022-07-19T13:44:46;32.00;46.50
7654;DHT22;3869;48.406;10.774;2022-07-19T13:47:14;32.00;45.00
7654;DHT22;3869;48.406;10.774;2022-07-19T13:49:42;32.10;45.90
7654;DHT22;3869;48.406;10.774;2022-07-19T13:52:11;32.10;45.00
7654;DHT22;3869;48.406;10.774;2022-07-19T13:54:40;32.10;43.60
7654;DHT22;3869;48.406;10.774;2022-07-19T13:57:08;32.00;43.40
7654;DHT22;3869;48.406;10.774;2022-07-19T14:00:40;32.00;42.80
7654;DHT22;3869;48.406;10.774;2022-07-19T14:03:13;32.00;44.90
7654;DHT22;3869;48.406;10.774;2022-07-19T14:05:44;32.10;44.10
7654;DHT22;3869;48.406;10.774;2022-07-19T14:08:13;32.00;43.60
7654;DHT22;3869;48.406;10.774;2022-07-19T14:10:42;32.00;44.90
7654;DHT22;3869;48.406;10.774;2022-07-19T14:13:10;32.00;45.30
7654;DHT22;3869;48.406;10.774;2022-07-19T14:16:01;32.00;43.20
7654;DHT22;3869;48.406;10.774;2022-07-19T14:18:29;31.90;43.30
7654;DHT22;3869;48.406;10.774;2022-07-19T14:20:57;32.00;44.40
7654;DHT22;3869;48.406;10.774;2022-07-19T14:23:25;32.00;44.80
7654;DHT22;3869;48.406;10.774;2022-07-19T14:25:53;32.10;44.70
7654;DHT22;3869;48.406;10.774;2022-07-19T14:28:27;32.10;44.50
7654;DHT22;3869;48.406;10.774;2022-07-19T14:30:55;32.10;44.80
7654;DHT22;3869;48.406;10.774;2022-07-19T14:33:25;32.10;44.40
7654;DHT22;3869;48.406;10.774;2022-07-19T14:35:54;32.10;43.70
7654;DHT22;3869;48.406;10.774;2022-07-19T14:38:22;32.10;44.50
7654;DHT22;3869;48.406;10.774;2022-07-19T14:40:50;32.10;44.40
7654;DHT22;3869;48.406;10.774;2022-07-19T14:43:18;32.10;44.60
7654;DHT22;3869;48.406;10.774;2022-07-19T14:45:46;32.10;44.00
7654;DHT22;3869;48.406;10.774;2022-07-19T14:48:15;32.10;44.50
7654;DHT22;3869;48.406;10.774;2022-07-19T14:50:44;32.10;44.50
7654;DHT22;3869;48.406;10.774;2022-07-19T14:53:12;32.10;44.70
7654;DHT22;3869;48.406;10.774;2022-07-19T14:55:40;32.10;45.50
7654;DHT22;3869;48.406;10.774;2022-07-19T14:58:08;32.10;44.50
7654;DHT22;3869;48.406;10.774;2022-07-19T15:00:36;32.10;44.90
7654;DHT22;3869;48.406;10.774;2022-07-19T15:03:05;32.10;44.80
7654;DHT22;3869;48.406;10.774;2022-07-19T15:05:33;32.10;46.30
7654;DHT22;3869;48.406;10.774;2022-07-19T15:08:03;32.10;45.30
7654;DHT22;3869;48.406;10.774;2022-07-19T15:10:31;32.10;45.30
7654;DHT22;3869;48.406;10.774;2022-07-19T15:12:59;32.10;45.40
7654;DHT22;3869;48.406;10.774;2022-07-19T15:15:27;32.00;44.00
7654;DHT22;3869;48.406;10.774;2022-07-19T15:17:55;32.00;44.70
7654;DHT22;3869;48.406;10.774;2022-07-19T15:20:26;32.00;44.50
7654;DHT22;3869;48.406;10.774;2022-07-19T15:22:54;32.00;44.70
7654;DHT22;3869;48.406;10.774;2022-07-19T15:25:24;31.90;44.20
7654;DHT22;3869;48.406;10.774;2022-07-19T15:27:52;31.90;43.60
7654;DHT22;3869;48.406;10.774;2022-07-19T15:30:20;31.80;43.90
7654;DHT22;3869;48.406;10.774;2022-07-19T15:32:49;31.80;44.60
7654;DHT22;3869;48.406;10.774;2022-07-19T15:35:17;31.80;44.50
7654;DHT22;3869;48.406;10.774;2022-07-19T15:37:46;31.80;42.70
7654;DHT22;3869;48.406;10.774;2022-07-19T15:40:14;31.80;42.90
7654;DHT22;3869;48.406;10.774;2022-07-19T15:42:47;31.80;43.50
7654;DHT22;3869;48.406;10.774;2022-07-19T15:45:15;31.70;44.50
7654;DHT22;3869;48.406;10.774;2022-07-19T15:47:44;31.70;42.40
7654;DHT22;3869;48.406;10.774;2022-07-19T15:50:14;31.70;43.40
7654;DHT22;3869;48.406;10.774;2022-07-19T15:52:42;31.70;44.00
7654;DHT22;3869;48.406;10.774;2022-07-19T15:57:44;31.60;43.40
7654;DHT22;3869;48.406;10.774;2022-07-19T16:00:13;31.60;43.30
7654;DHT22;3869;48.406;10.774;2022-07-19T16:02:41;31.60;43.00
7654;DHT22;3869;48.406;10.774;2022-07-19T16:05:09;31.60;45.00
7654;DHT22;3869;48.406;10.774;2022-07-19T16:07:38;31.60;44.50
7654;DHT22;3869;48.406;10.774;2022-07-19T16:10:07;31.50;43.50
7654;DHT22;3869;48.406;10.774;2022-07-19T16:12:35;31.50;44.80